Terminal Aerodrome Forecast
Issued by NWS

Home | Current Version | Previous Version | Graphics & Text | Print | Product List | Glossary On
Versions: 1 2 3 4 5 6 7 8 9 10 11 12 13 14 15 16 17 18 19 20
850
FTUS43 KICT 300058 AAC
TAFRSL
TAF AMD
KRSL 300058Z 3001/3024 07020G30KT P6SM -TSRA BKN050CB
     FM300200 17007KT P6SM SCT040 BKN250
     FM301800 18013KT P6SM BKN250=

USA.gov is the U.S. government's official web portal to all federal, state and local government web resources and services.